Time;durP1;ratioP1;P1;durP2;ratioP2;P2;SDS_P1;SDS_P2;PMS_P1;PMS_P2;Temp;Humidity;BMP_temperature;BMP_pressure;BME280_temperature;BME280_humidity;BME280_pressure;Samples;Min_cycle;Max_cycle;Signal;HPM_P1;HPM_P2
2024/01/25 00:01:54;;;;;;;25.23;13.63;;;154.50;2252.80;;;;;;5105706;28;20272;-79
2024/01/25 00:04:19;;;;;;;;;;;154.40;2252.80;;;;;;5114287;28;20392;-78
2024/01/25 00:06:45;;;;;;;28.15;14.48;;;154.40;2252.80;;;;;;5101455;28;19908;-79
2024/01/25 00:09:10;;;;;;;;;;;154.50;2252.80;;;;;;5099829;28;20082;-79
2024/01/25 00:11:36;;;;;;;27.65;13.48;;;154.50;2252.80;;;;;;5101974;28;19919;-79
2024/01/25 00:14:02;;;;;;;;;;;154.50;2252.80;;;;;;5104072;28;20104;-79
2024/01/25 00:16:28;;;;;;;35.60;15.15;;;179.20;2252.80;;;;;;5104403;28;19908;-78
2024/01/25 00:18:54;;;;;;;;;;;179.20;2252.80;;;;;;5110063;28;20031;-79
2024/01/25 00:21:20;;;;;;;27.17;13.70;;;179.30;2252.80;;;;;;5103561;28;20313;-78
2024/01/25 00:23:46;;;;;;;25.10;13.80;;;179.40;2252.80;;;;;;5109102;28;20074;-78
2024/01/25 00:26:12;;;;;;;;;;;179.40;2252.80;;;;;;5102696;28;20423;-78
2024/01/25 00:28:38;;;;;;;23.57;12.10;;;179.50;2252.80;;;;;;5108580;28;20284;-79
2024/01/25 00:31:03;;;;;;;;;;;179.50;2252.80;;;;;;5111586;28;20031;-78
2024/01/25 00:33:29;;;;;;;22.45;12.02;;;179.50;2252.80;;;;;;5101087;28;20014;-79
2024/01/25 00:35:55;;;;;;;;;;;179.50;2252.80;;;;;;5105023;28;20020;-79
2024/01/25 00:38:21;;;;;;;21.90;11.65;;;179.50;2252.80;;;;;;5104711;28;19908;-79
2024/01/25 00:40:47;;;;;;;;;;;179.50;2252.80;;;;;;5122421;27;20024;-79
2024/01/25 00:43:13;;;;;;;23.27;10.95;;;179.50;2252.80;;;;;;5102324;28;19915;-79
2024/01/25 00:45:39;;;;;;;24.63;11.05;;;179.50;2252.80;;;;;;5105633;28;20021;-79
2024/01/25 00:48:05;;;;;;;;;;;179.60;2252.80;;;;;;5113037;27;20083;-79
2024/01/25 00:50:31;;;;;;;19.85;10.27;;;179.60;2252.80;;;;;;5104912;28;19922;-79
2024/01/25 00:52:57;;;;;;;;;;;179.70;2252.80;;;;;;5107738;28;20092;-79
2024/01/25 00:55:23;;;;;;;21.05;10.27;;;179.70;2252.80;;;;;;5109197;27;19907;-79
2024/01/25 00:57:49;;;;;;;22.55;10.43;;;179.70;2252.80;;;;;;5106079;28;20039;-79
2024/01/25 01:00:15;;;;;;;20.10;10.02;;;179.70;2252.80;;;;;;5106587;27;20039;-79
2024/01/25 01:02:45;;;;;;;27.67;10.57;;;179.70;2252.80;;;;;;5100501;28;20072;-78
2024/01/25 01:05:12;;;;;;;20.00;10.93;;;179.70;2252.80;;;;;;5104532;28;20115;-78
2024/01/25 01:07:40;;;;;;;22.02;11.18;;;179.70;2252.80;;;;;;5102728;28;20036;-78
2024/01/25 01:10:08;;;;;;;26.15;11.80;;;179.70;2252.80;;;;;;5099975;28;20029;-78
2024/01/25 01:12:34;;;;;;;21.33;11.40;;;179.70;2252.80;;;;;;5106612;28;20034;-78
2024/01/25 01:15:00;;;;;;;;;;;179.70;2252.80;;;;;;5101445;28;20039;-78
2024/01/25 01:17:26;;;;;;;25.95;10.75;;;179.70;2252.80;;;;;;5112846;27;19908;-78
2024/01/25 01:19:51;;;;;;;21.48;11.23;;;179.60;2252.80;;;;;;5107654;28;20051;-78
2024/01/25 01:22:17;;;;;;;19.42;11.55;;;179.60;2252.80;;;;;;5112470;28;20039;-78
2024/01/25 01:24:43;;;;;;;;;;;179.60;2252.80;;;;;;5103169;28;20050;-78
2024/01/25 01:27:08;;;;;;;21.30;9.82;;;179.60;2252.80;;;;;;5103377;28;20466;-78
2024/01/25 01:29:34;;;;;;;;;;;179.60;2252.80;;;;;;5107002;28;20099;-78
2024/01/25 01:32:00;;;;;;;21.55;11.38;;;179.50;2252.80;;;;;;5105291;28;19904;-78
2024/01/25 01:34:26;;;;;;;;;;;179.50;2252.80;;;;;;5103247;28;20066;-78
2024/01/25 01:36:51;;;;;;;21.63;11.25;;;179.50;2252.80;;;;;;5121199;27;20288;-78
2024/01/25 01:39:17;;;;;;;;;;;179.50;2252.80;;;;;;5103413;27;20082;-78
2024/01/25 01:41:47;;;;;;;22.45;10.43;;;179.50;2252.80;;;;;;5103648;28;19915;-78
2024/01/25 01:44:13;;;;;;;28.15;11.68;;;179.50;2252.80;;;;;;5105172;28;20063;-78
2024/01/25 01:46:39;;;;;;;;;;;179.50;2252.80;;;;;;5104179;28;20120;-78
2024/01/25 01:49:08;;;;;;;22.45;10.70;;;179.50;2252.80;;;;;;5105646;28;19915;-78
2024/01/25 01:51:35;;;;;;;20.95;10.18;;;179.50;2252.80;;;;;;5110326;28;20031;-78
2024/01/25 01:54:06;;;;;;;18.85;9.85;;;179.50;2252.80;;;;;;5102008;28;20044;-78
2024/01/25 01:56:33;;;;;;;20.98;10.40;;;179.40;2252.80;;;;;;5102114;28;20050;-78
2024/01/25 01:59:04;;;;;;;24.92;12.88;;;179.60;2252.80;;;;;;5104060;28;20560;-78
2024/01/25 02:01:31;;;;;;;31.70;13.15;;;179.40;2252.80;;;;;;5118783;27;20107;-78
2024/01/25 02:03:57;;;;;;;28.40;12.25;;;179.40;2252.80;;;;;;5102477;28;20043;-78
2024/01/25 02:06:26;;;;;;;31.10;13.95;;;179.50;2252.80;;;;;;5101277;27;20543;-78
2024/01/25 02:08:58;;;;;;;30.15;13.27;;;179.50;2252.80;;;;;;5102283;28;20126;-78
2024/01/25 02:11:24;;;;;;;24.90;11.82;;;179.50;2252.80;;;;;;5114182;27;20023;-78
2024/01/25 02:13:51;;;;;;;22.55;12.07;;;179.50;2252.80;;;;;;5112514;28;20054;-78
2024/01/25 02:16:17;;;;;;;26.25;11.18;;;179.50;2252.80;;;;;;5092428;28;20036;-78
2024/01/25 02:18:43;;;;;;;25.17;12.35;;;179.40;2252.80;;;;;;5092447;28;20118;-78
2024/01/25 02:21:09;;;;;;;;;;;179.40;2252.80;;;;;;5093163;28;20067;-78
2024/01/25 02:23:35;;;;;;;26.63;12.02;;;179.40;2252.80;;;;;;5109453;28;19971;-79
2024/01/25 02:26:00;;;;;;;28.58;11.38;;;179.30;2252.80;;;;;;5098731;28;20051;-78
2024/01/25 02:28:26;;;;;;;;;;;179.30;2252.80;;;;;;5121739;27;20406;-79
2024/01/25 02:30:52;;;;;;;24.45;13.23;;;179.20;2252.80;;;;;;5123106;27;20348;-78
2024/01/25 02:33:17;;;;;;;;;;;179.20;2252.80;;;;;;5111641;27;20032;-78
2024/01/25 02:35:43;;;;;;;26.92;11.70;;;179.20;2252.80;;;;;;5120194;27;19953;-78
2024/01/25 02:38:08;;;;;;;;;;;179.20;2252.80;;;;;;5111745;27;20023;-78
2024/01/25 02:40:34;;;;;;;22.02;11.02;;;179.30;2252.80;;;;;;5120181;27;19904;-79
2024/01/25 02:43:00;;;;;;;;;;;179.30;2252.80;;;;;;5118189;27;20030;-77
2024/01/25 02:45:26;;;;;;;22.17;9.90;;;179.40;2252.80;;;;;;5124086;28;19918;-78
2024/01/25 02:47:51;;;;;;;;;;;179.40;2252.80;;;;;;5119846;27;20050;-78
2024/01/25 02:50:17;;;;;;;22.10;10.05;;;179.40;2252.80;;;;;;5122155;27;19907;-78
2024/01/25 02:52:43;;;;;;;;;;;179.40;2252.80;;;;;;5118607;27;20042;-78
2024/01/25 02:55:09;;;;;;;28.33;11.70;;;179.40;2252.80;;;;;;5119233;28;19907;-78
2024/01/25 02:57:34;;;;;;;22.35;11.23;;;179.40;2252.80;;;;;;5119790;28;20369;-78
2024/01/25 03:00:00;;;;;;;;;;;179.40;2252.80;;;;;;5121855;28;20069;-78
2024/01/25 03:02:26;;;;;;;22.77;10.10;;;179.50;2252.80;;;;;;5117752;28;20018;-78
2024/01/25 03:04:52;;;;;;;;;;;179.50;2252.80;;;;;;5120434;27;20020;-78
2024/01/25 03:07:18;;;;;;;22.85;10.50;;;179.50;2252.80;;;;;;5115389;28;19942;-78
2024/01/25 03:09:43;;;;;;;;;;;179.50;2252.80;;;;;;5114821;27;20384;-78
2024/01/25 03:12:09;;;;;;;49.58;21.13;;;179.50;2252.80;;;;;;5105071;28;20384;-78
2024/01/25 03:14:35;;;;;;;59.53;23.27;;;179.50;2252.80;;;;;;5119414;27;20030;-78
2024/01/25 03:17:01;;;;;;;;;;;179.50;2252.80;;;;;;5124469;28;20024;-78
2024/01/25 03:19:30;;;;;;;31.50;14.60;;;179.50;2252.80;;;;;;5112058;28;19915;-77
2024/01/25 03:21:56;;;;;;;25.33;12.63;;;179.50;2252.80;;;;;;5116529;27;20079;-78
2024/01/25 03:24:22;;;;;;;;;;;179.50;2252.80;;;;;;5117075;28;20035;-78
2024/01/25 03:26:48;;;;;;;25.27;12.15;;;179.50;2252.80;;;;;;5121758;27;19907;-78
2024/01/25 03:29:14;;;;;;;27.98;14.68;;;179.50;2252.80;;;;;;5112108;27;20039;-77
2024/01/25 03:31:39;;;;;;;;;;;179.50;2252.80;;;;;;5125106;27;20023;-78
2024/01/25 03:34:05;;;;;;;30.67;13.50;;;179.50;2252.80;;;;;;5118117;27;19950;-78
2024/01/25 03:36:31;;;;;;;;;;;179.50;2252.80;;;;;;5119640;27;20495;-78
2024/01/25 03:38:57;;;;;;;25.08;12.15;;;179.40;2252.80;;;;;;5117545;27;19903;-78
2024/01/25 03:41:23;;;;;;;33.97;13.73;;;179.50;2252.80;;;;;;5124755;27;20030;-78
2024/01/25 03:43:49;;;;;;;;;;;179.50;2252.80;;;;;;5126015;27;20058;-78
2024/01/25 03:46:15;;;;;;;23.75;12.15;;;179.50;2252.80;;;;;;5118894;27;19904;-77
2024/01/25 03:48:41;;;;;;;;;;;179.40;2252.80;;;;;;5119028;27;20024;-77
2024/01/25 03:51:06;;;;;;;30.92;13.05;;;179.40;2252.80;;;;;;5128713;27;19954;-77
2024/01/25 03:53:32;;;;;;;;;;;179.40;2252.80;;;;;;5115998;27;20051;-77
2024/01/25 03:55:58;;;;;;;30.10;13.43;;;179.40;2252.80;;;;;;5116541;28;19903;-77
2024/01/25 03:58:24;;;;;;;;;;;179.40;2252.80;;;;;;5116947;27;20365;-77
2024/01/25 04:00:49;;;;;;;28.92;12.85;;;179.40;2252.80;;;;;;5106674;27;19910;-77
2024/01/25 04:03:15;;;;;;;;;;;179.40;2252.80;;;;;;5120547;27;20384;-77
2024/01/25 04:05:41;;;;;;;29.52;14.35;;;179.40;2252.80;;;;;;5119568;27;20376;-77
2024/01/25 04:08:06;;;;;;;;;;;179.40;2252.80;;;;;;5119424;27;20031;-77
2024/01/25 04:10:33;;;;;;;35.10;16.02;;;179.40;2252.80;;;;;;5122686;27;19953;-78
2024/01/25 04:13:03;;;;;;;25.88;12.40;;;179.40;2252.80;;;;;;5121009;27;20477;-77
2024/01/25 04:15:29;;;;;;;26.85;13.50;;;179.40;2252.80;;;;;;5104483;27;20084;-77
2024/01/25 04:17:56;;;;;;;30.00;13.23;;;179.50;2252.80;;;;;;5119102;27;20020;-78
2024/01/25 04:20:22;;;;;;;27.85;13.18;;;179.50;2252.80;;;;;;5125963;27;20055;-77
2024/01/25 04:22:47;;;;;;;;;;;179.50;2252.80;;;;;;5126027;27;20544;-77
2024/01/25 04:25:13;;;;;;;27.50;13.02;;;179.50;2252.80;;;;;;5119125;27;19915;-77
2024/01/25 04:27:39;;;;;;;;;;;179.50;2252.80;;;;;;5118783;27;20038;-77
2024/01/25 04:30:06;;;;;;;27.35;12.77;;;179.50;2252.80;;;;;;5120300;27;19926;-78
2024/01/25 04:32:32;;;;;;;26.15;12.30;;;179.50;2252.80;;;;;;5123186;27;20023;-77
2024/01/25 04:34:57;;;;;;;;;;;179.50;2252.80;;;;;;5117686;27;20073;-78
2024/01/25 04:37:23;;;;;;;28.05;12.30;;;179.50;2252.80;;;;;;5109834;27;19903;-77
2024/01/25 04:39:49;;;;;;;;;;;179.50;2252.80;;;;;;5117951;27;20023;-78
2024/01/25 04:42:14;;;;;;;22.40;12.85;;;179.50;2252.80;;;;;;5120210;27;19912;-78
2024/01/25 04:44:40;;;;;;;;;;;179.50;2252.80;;;;;;5120292;27;20678;-78
2024/01/25 04:47:06;;;;;;;28.15;13.43;;;179.50;2252.80;;;;;;5126385;27;20035;-78
2024/01/25 04:49:31;;;;;;;;;;;179.40;2252.80;;;;;;5115944;27;20487;-77
2024/01/25 04:51:57;;;;;;;33.83;13.10;;;179.40;2252.80;;;;;;5119539;27;20268;-78
2024/01/25 04:54:23;;;;;;;;;;;179.40;2252.80;;;;;;5116034;27;20388;-77
2024/01/25 04:56:49;;;;;;;36.22;14.02;;;179.40;2252.80;;;;;;5125130;27;19904;-78
2024/01/25 04:59:14;;;;;;;;;;;179.40;2252.80;;;;;;5127710;27;20015;-77
2024/01/25 05:01:40;;;;;;;41.03;18.70;;;179.40;2252.80;;;;;;5127950;27;20368;-78
2024/01/25 05:04:05;;;;;;;;;;;179.40;2252.80;;;;;;5125401;27;20040;-77
2024/01/25 05:06:31;;;;;;;42.08;19.08;;;179.50;2252.80;;;;;;5101740;28;19908;-77
2024/01/25 05:08:57;;;;;;;;;;;179.50;2252.80;;;;;;5102641;28;20069;-77
2024/01/25 05:11:22;;;;;;;35.45;15.60;;;179.40;2252.80;;;;;;5102217;28;19931;-77
2024/01/25 05:13:48;;;;;;;;;;;179.50;2252.80;;;;;;5103670;28;20106;-77
2024/01/25 05:16:14;;;;;;;35.17;15.88;;;179.50;2252.80;;;;;;5097151;28;19908;-77
2024/01/25 05:18:39;;;;;;;;;;;179.50;2252.80;;;;;;5113218;28;20035;-77
2024/01/25 05:21:06;;;;;;;35.97;17.02;;;179.40;2252.80;;;;;;5101364;28;19908;-77
2024/01/25 05:23:32;;;;;;;38.53;17.08;;;179.30;2252.80;;;;;;5109152;28;20044;-77
2024/01/25 05:25:57;;;;;;;;;;;179.30;2252.80;;;;;;5111000;28;20482;-77
2024/01/25 05:28:24;;;;;;;46.40;14.80;;;179.30;2252.80;;;;;;5100112;28;19903;-77
2024/01/25 05:30:50;;;;;;;35.92;15.88;;;179.30;2252.80;;;;;;5106158;28;20015;-77
2024/01/25 05:33:16;;;;;;;38.78;15.15;;;179.30;2252.80;;;;;;5098535;28;20119;-78
2024/01/25 05:35:41;;;;;;;;;;;179.30;2252.80;;;;;;5102072;28;20119;-78
2024/01/25 05:38:07;;;;;;;51.75;22.50;;;179.30;2252.80;;;;;;5098038;28;19915;-78
2024/01/25 05:40:33;;;;;;;;;;;179.30;2252.80;;;;;;5101847;28;20071;-80
2024/01/25 05:42:59;;;;;;;30.73;14.20;;;179.30;2252.80;;;;;;5111581;28;19911;-78
2024/01/25 05:45:26;;;;;;;22.75;11.85;;;179.30;2252.80;;;;;;5101813;28;20038;-78
2024/01/25 05:47:52;;;;;;;24.60;11.77;;;179.30;2252.80;;;;;;5110097;28;20023;-78
2024/01/25 05:50:17;;;;;;;;;;;179.30;2252.80;;;;;;5106553;28;20028;-77
2024/01/25 05:52:43;;;;;;;37.25;14.20;;;179.30;2252.80;;;;;;5104031;28;19919;-77
2024/01/25 05:55:09;;;;;;;;;;;179.20;2252.80;;;;;;5101211;28;20151;-77
2024/01/25 05:57:38;;;;;;;30.67;11.82;;;179.20;2252.80;;;;;;5102753;28;20057;-77
2024/01/25 06:00:08;;;;;;;26.02;11.38;;;179.20;2252.80;;;;;;5098365;28;20032;-78
2024/01/25 06:02:33;;;;;;;44.88;19.15;;;179.20;2252.80;;;;;;5112072;27;20051;-77
2024/01/25 06:04:59;;;;;;;;;;;179.20;2252.80;;;;;;5106033;28;20491;-76
2024/01/25 06:07:26;;;;;;;25.27;12.40;;;179.30;2252.80;;;;;;5098968;28;19908;-78
2024/01/25 06:09:52;;;;;;;27.65;13.30;;;179.30;2252.80;;;;;;5102621;28;20024;-78
2024/01/25 06:12:18;;;;;;;25.88;13.68;;;179.30;2252.80;;;;;;5105732;28;20019;-77
2024/01/25 06:14:44;;;;;;;;;;;179.30;2252.80;;;;;;5104509;28;20386;-79
2024/01/25 06:17:09;;;;;;;35.58;14.70;;;179.30;2252.80;;;;;;5106140;28;19907;-78
2024/01/25 06:19:35;;;;;;;;;;;179.30;2252.80;;;;;;5098065;28;20077;-81
2024/01/25 06:22:01;;;;;;;27.95;12.55;;;179.30;2252.80;;;;;;5107636;28;19912;-80
2024/01/25 06:24:26;;;;;;;;;;;179.30;2252.80;;;;;;5106739;28;20051;-80
2024/01/25 06:26:55;;;;;;;27.15;12.98;;;179.40;2252.80;;;;;;5110683;28;19911;-80
2024/01/25 06:29:21;;;;;;;29.92;14.88;;;179.40;2252.80;;;;;;5106258;28;20069;-80
2024/01/25 06:31:47;;;;;;;;;;;179.40;2252.80;;;;;;5106997;28;20442;-78
2024/01/25 06:34:13;;;;;;;39.28;15.98;;;179.40;2252.80;;;;;;5107222;28;19995;-79
2024/01/25 06:36:38;;;;;;;;;;;179.30;2252.80;;;;;;5101650;28;20036;-79
2024/01/25 06:39:04;;;;;;;39.65;17.60;;;179.20;2252.80;;;;;;5108794;28;19960;-78
2024/01/25 06:41:30;;;;;;;;;;;154.50;2252.80;;;;;;5103674;28;20038;-78
2024/01/25 06:43:55;;;;;;;41.80;17.58;;;154.50;2252.80;;;;;;5100303;28;20384;-77
2024/01/25 06:46:21;;;;;;;;;;;154.50;2252.80;;;;;;5096366;28;20035;-79
2024/01/25 06:48:47;;;;;;;44.17;20.23;;;154.50;2252.80;;;;;;5107194;28;19911;-78
2024/01/25 06:51:14;;;;;;;;;;;154.50;2252.80;;;;;;5104248;28;20531;-78
2024/01/25 06:53:40;;;;;;;59.30;33.35;;;154.50;2252.80;;;;;;5098876;28;20396;-77
2024/01/25 06:56:06;;;;;;;;;;;154.50;2252.80;;;;;;5104046;28;20084;-79
2024/01/25 06:58:32;;;;;;;35.15;19.08;;;154.50;2252.80;;;;;;5105383;28;19911;-78
2024/01/25 07:00:58;;;;;;;;;;;154.50;2252.80;;;;;;5107589;28;20411;-79
2024/01/25 07:03:24;;;;;;;30.98;15.95;;;154.50;2252.80;;;;;;5107489;28;20372;-81
2024/01/25 07:05:49;;;;;;;;;;;154.50;2252.80;;;;;;5122555;27;20111;-79
2024/01/25 07:08:15;;;;;;;23.88;12.98;;;179.20;2252.80;;;;;;5114239;28;19911;-79
2024/01/25 07:10:42;;;;;;;29.38;13.55;;;179.30;2252.80;;;;;;5107095;28;20398;-78
2024/01/25 07:13:08;;;;;;;30.42;13.25;;;179.40;2252.80;;;;;;5107294;28;20032;-78
2024/01/25 07:15:33;;;;;;;;;;;179.40;2252.80;;;;;;5106223;28;20078;-79
2024/01/25 07:17:59;;;;;;;30.50;11.70;;;179.50;2252.80;;;;;;5112926;28;19990;-75
2024/01/25 07:20:25;;;;;;;22.38;10.98;;;179.60;2252.80;;;;;;5115961;28;20027;-80
2024/01/25 07:22:50;;;;;;;;;;;179.70;2252.80;;;;;;5108923;28;20493;-76
2024/01/25 07:25:16;;;;;;;25.60;10.50;;;179.70;2252.80;;;;;;5108939;28;19950;-78
2024/01/25 07:27:45;;;;;;;;;;;179.70;2252.80;;;;;;5105570;28;20088;-78
2024/01/25 07:30:12;;;;;;;28.05;10.63;;;179.80;2252.80;;;;;;5108244;28;19908;-76
2024/01/25 07:32:41;;;;;;;26.55;12.07;;;179.90;2252.80;;;;;;5104650;28;20020;-78
2024/01/25 07:35:07;;;;;;;47.30;21.70;;;179.80;2252.80;;;;;;5112342;28;20038;-80
2024/01/25 07:37:33;;;;;;;244.15;108.07;;;179.80;2252.80;;;;;;5100100;28;20089;-79
2024/01/25 07:39:59;;;;;;;;;;;180.10;2252.80;;;;;;5107751;28;20485;-79
2024/01/25 07:42:24;;;;;;;31.60;15.80;;;180.10;2252.80;;;;;;5103904;28;20425;-74
2024/01/25 07:44:50;;;;;;;;;;;180.10;2252.80;;;;;;5105975;28;20032;-76
2024/01/25 07:47:15;;;;;;;44.03;20.67;;;204.80;2252.80;;;;;;5106848;28;19907;-78
2024/01/25 07:49:41;;;;;;;;;;;204.80;2252.80;;;;;;5102211;28;20032;-79
2024/01/25 07:52:07;;;;;;;33.20;15.45;;;204.90;2252.80;;;;;;5104222;28;19922;-79
2024/01/25 07:54:32;;;;;;;;;;;204.90;2252.80;;;;;;5106258;28;20035;-78
2024/01/25 07:56:58;;;;;;;25.92;12.20;;;204.90;2252.80;;;;;;5103495;28;19926;-77
2024/01/25 07:59:24;;;;;;;;;;;204.90;2252.80;;;;;;5106279;28;20043;-80
2024/01/25 08:01:49;;;;;;;28.15;10.93;;;205.00;2252.80;;;;;;5108521;28;20399;-76
2024/01/25 08:04:15;;;;;;;;;;;205.20;2252.80;;;;;;5108846;28;20032;-77
2024/01/25 08:06:41;;;;;;;24.40;11.57;;;205.20;2252.80;;;;;;5106969;27;19908;-79
2024/01/25 08:09:08;;;;;;;24.08;12.95;;;205.20;2252.80;;;;;;5105340;28;20028;-77
2024/01/25 08:11:35;;;;;;;25.23;14.30;;;205.20;2252.80;;;;;;5110700;28;20080;-80
2024/01/25 08:14:00;;;;;;;25.98;12.35;;;205.20;2252.80;;;;;;5101669;28;20016;-80
2024/01/25 08:16:26;;;;;;;;;;;205.20;2252.80;;;;;;5107743;28;20477;-77
2024/01/25 08:18:52;;;;;;;28.13;13.88;;;205.30;2252.80;;;;;;5103764;28;19908;-77
2024/01/25 08:21:17;;;;;;;;;;;205.30;2252.80;;;;;;5103273;28;20030;-77
2024/01/25 08:23:43;;;;;;;35.17;12.95;;;205.30;2252.80;;;;;;5110032;28;19926;-77
2024/01/25 08:26:09;;;;;;;30.33;12.98;;;205.30;2252.80;;;;;;5106939;28;20020;-77
2024/01/25 08:28:38;;;;;;;31.75;15.65;;;205.40;2252.80;;;;;;5103218;28;20504;-81
2024/01/25 08:31:04;;;;;;;40.22;19.88;;;205.40;2252.80;;;;;;5100616;28;20047;-76
2024/01/25 08:33:30;;;;;;;38.50;18.42;;;230.40;2252.80;;;;;;5107896;28;20032;-79
2024/01/25 08:35:56;;;;;;;31.02;18.67;;;205.70;2252.80;;;;;;5109555;28;20023;-78
2024/01/25 08:38:22;;;;;;;;;;;205.70;2252.80;;;;;;5099574;28;20020;-81
2024/01/25 08:40:48;;;;;;;22.38;11.35;;;230.40;2252.80;;;;;;5103802;28;20448;-76
2024/01/25 08:43:14;;;;;;;24.58;12.95;;;205.70;2252.80;;;;;;5107038;28;20042;-75
2024/01/25 08:45:39;;;;;;;;;;;205.70;2252.80;;;;;;5108157;28;20085;-75
2024/01/25 08:48:06;;;;;;;31.75;15.85;;;205.70;2252.80;;;;;;5106522;28;19908;-78
2024/01/25 08:50:33;;;;;;;28.88;14.52;;;205.70;2252.80;;;;;;5100228;28;20101;-75
2024/01/25 08:52:59;;;;;;;25.00;12.70;;;205.70;2252.80;;;;;;5099734;28;20407;-74
2024/01/25 08:55:25;;;;;;;32.88;14.75;;;205.70;2252.80;;;;;;5105459;28;20023;-83
2024/01/25 08:57:51;;;;;;;28.30;13.40;;;230.40;2252.80;;;;;;5101336;28;20024;-77
2024/01/25 09:00:18;;;;;;;27.90;15.20;;;230.40;2252.80;;;;;;5103578;28;20027;-76
2024/01/25 09:02:44;;;;;;;29.60;14.63;;;230.40;2252.80;;;;;;5107482;28;20036;-76
2024/01/25 09:05:10;;;;;;;27.38;13.55;;;230.40;2252.80;;;;;;5106181;28;20042;-75
2024/01/25 09:07:36;;;;;;;24.42;10.82;;;230.50;2252.80;;;;;;5107490;28;20023;-73
2024/01/25 09:10:04;;;;;;;24.60;12.13;;;230.60;2252.80;;;;;;5109588;28;20048;-73
2024/01/25 09:12:30;;;;;;;26.50;12.55;;;230.60;2252.80;;;;;;5098816;28;20034;-74
2024/01/25 09:14:56;;;;;;;27.00;12.95;;;230.70;2252.80;;;;;;5105612;28;20047;-72
2024/01/25 09:17:21;;;;;;;;;;;230.80;2252.80;;;;;;5100022;28;20496;-75
2024/01/25 09:19:51;;;;;;;26.85;12.38;;;230.90;2252.80;;;;;;5104172;28;20359;-74
2024/01/25 09:22:19;;;;;;;26.25;11.38;;;230.90;2252.80;;;;;;5099111;28;20139;-74
2024/01/25 09:24:45;;;;;;;27.27;11.65;;;231.00;2252.80;;;;;;5099188;28;20107;-74
2024/01/25 09:27:12;;;;;;;26.30;12.55;;;231.20;2252.80;;;;;;5105234;28;20020;-78
2024/01/25 09:29:39;;;;;;;21.42;8.98;;;256.00;2252.80;;;;;;5106729;28;20063;-73
2024/01/25 09:32:09;;;;;;;18.95;9.18;;;256.10;2252.80;;;;;;5101386;28;20032;-73
2024/01/25 09:34:36;;;;;;;22.10;8.57;;;256.20;2252.80;;;;;;5100124;28;20515;-73
2024/01/25 09:37:02;;;;;;;16.88;8.50;;;256.40;2252.80;;;;;;5095347;28;20024;-71
2024/01/25 09:39:28;;;;;;;18.00;8.65;;;256.50;2252.80;;;;;;5105241;28;20489;-74
2024/01/25 09:41:54;;;;;;;25.50;10.43;;;256.50;2252.80;;;;;;5095610;28;20116;-74
2024/01/25 09:44:20;;;;;;;21.92;9.38;;;256.60;2252.80;;;;;;5101282;28;20122;-75
2024/01/25 09:46:47;;;;;;;17.40;9.20;;;256.60;2252.80;;;;;;5097136;28;20020;-75
2024/01/25 09:49:13;;;;;;;21.05;9.75;;;256.70;2252.80;;;;;;5104541;28;20052;-74
2024/01/25 09:51:41;;;;;;;28.08;12.00;;;256.60;2252.80;;;;;;5101139;28;20024;-75
2024/01/25 09:54:07;;;;;;;25.63;12.20;;;256.70;2252.80;;;;;;5102561;28;20047;-75
2024/01/25 09:56:34;;;;;;;24.85;10.52;;;256.70;2252.80;;;;;;5100578;28;20028;-77
2024/01/25 09:59:00;;;;;;;33.30;13.90;;;281.60;2278.40;;;;;;5106233;28;20019;-78
2024/01/25 10:01:26;;;;;;;28.63;12.90;;;281.60;2278.40;;;;;;5110596;28;20031;-74
2024/01/25 10:03:52;;;;;;;27.33;14.98;;;281.80;2278.40;;;;;;5099533;27;20032;-74
2024/01/25 10:06:18;;;;;;;27.02;12.93;;;281.90;2278.40;;;;;;5110221;28;20030;-75
2024/01/25 10:08:45;;;;;;;25.92;12.88;;;281.90;2278.40;;;;;;5101376;28;20099;-75
2024/01/25 10:11:12;;;;;;;24.67;12.18;;;281.70;2278.40;;;;;;5098705;28;20107;-77
2024/01/25 10:13:42;;;;;;;27.50;12.93;;;281.70;2278.40;;;;;;5100665;28;20024;-75
2024/01/25 10:16:14;;;;;;;24.75;12.18;;;281.90;2278.40;;;;;;5105983;28;20097;-76
2024/01/25 10:18:41;;;;;;;25.25;11.98;;;282.10;2278.40;;;;;;5107192;28;20027;-78
2024/01/25 10:21:09;;;;;;;20.92;12.95;;;282.20;2278.40;;;;;;5111064;28;20057;-78
2024/01/25 10:23:35;;;;;;;24.08;9.70;;;307.30;2304.00;;;;;;5092543;28;20497;-78
2024/01/25 10:26:02;;;;;;;23.65;9.93;;;307.50;2304.00;;;;;;5112901;28;20031;-79
2024/01/25 10:28:28;;;;;;;16.58;9.43;;;307.50;2304.00;;;;;;5113254;28;20072;-78
2024/01/25 10:31:01;;;;;;;22.00;10.30;;;307.60;2304.00;;;;;;5113251;28;20024;-78
2024/01/25 10:33:27;;;;;;;17.40;7.93;;;307.50;2304.00;;;;;;5113792;28;20015;-78
2024/01/25 10:36:03;;;;;;;18.88;6.75;;;307.50;2304.00;;;;;;5112772;28;20020;-75
2024/01/25 10:38:34;;;;;;;20.67;6.65;;;307.40;2304.00;;;;;;5112636;28;20119;-75
2024/01/25 10:41:02;;;;;;;18.55;7.03;;;307.40;2304.00;;;;;;5113789;28;20047;-75
2024/01/25 10:43:31;;;;;;;21.40;8.52;;;307.60;2304.00;;;;;;5093454;28;20034;-77
2024/01/25 10:45:58;;;;;;;22.58;10.80;;;307.70;2304.00;;;;;;5092250;28;20073;-76
2024/01/25 10:48:29;;;;;;;35.33;18.40;;;307.80;2304.00;;;;;;5092278;28;20024;-76
2024/01/25 10:50:55;;;;;;;21.70;9.75;;;308.00;2304.00;;;;;;5093633;28;20020;-77
2024/01/25 10:53:25;;;;;;;18.27;7.63;;;307.90;2304.00;;;;;;5091678;28;20052;-80
2024/01/25 10:55:52;;;;;;;19.40;7.75;;;308.10;2304.00;;;;;;5093407;28;20055;-77
2024/01/25 10:58:18;;;;;;;23.60;7.95;;;308.10;2304.00;;;;;;5107564;28;20036;-76
2024/01/25 11:01:02;;;;;;;16.05;6.97;;;332.90;2329.60;;;;;;5110946;28;20020;-77
2024/01/25 11:03:28;;;;;;;16.98;7.10;;;333.00;2329.60;;;;;;5097681;28;20058;-78
2024/01/25 11:06:10;;;;;;;20.23;7.18;;;333.10;2329.60;;;;;;5095356;28;20028;-76
2024/01/25 11:08:39;;;;;;;15.77;6.63;;;333.50;2329.60;;;;;;5108534;28;20028;-79
2024/01/25 11:11:14;;;;;;;20.30;7.25;;;358.40;2329.60;;;;;;5103941;28;20473;-77
2024/01/25 11:13:43;;;;;;;16.83;6.32;;;358.60;2329.60;;;;;;5097879;28;20043;-77
2024/01/25 11:16:16;;;;;;;20.85;7.60;;;358.70;2278.40;;;;;;5108800;28;20023;-77
2024/01/25 11:18:55;;;;;;;16.60;7.75;;;358.80;2304.00;;;;;;5103786;28;20043;-79
2024/01/25 11:21:27;;;;;;;19.33;6.97;;;359.00;2227.20;;;;;;5103107;28;20065;-76
2024/01/25 11:24:01;;;;;;;22.80;7.75;;;;;;;;;;5111797;28;20044;-77
2024/01/25 11:26:26;;;;;;;19.58;7.38;;;384.00;2176.00;;;;;;5106242;28;20016;-79
2024/01/25 11:28:52;;;;;;;18.17;7.25;;;384.30;2150.40;;;;;;5100972;28;20564;-79
2024/01/25 11:31:19;;;;;;;14.75;5.05;;;384.40;2048.00;;;;;;5102434;28;20028;-76
2024/01/25 11:33:45;;;;;;;23.48;6.90;;;384.50;2048.00;;;;;;5095384;28;20016;-76
2024/01/25 11:36:11;;;;;;;18.70;5.80;;;384.40;2022.40;;;;;;5106023;28;20024;-76
2024/01/25 11:38:37;;;;;;;16.75;5.80;;;384.40;2022.40;;;;;;5103948;28;20042;-78
2024/01/25 11:41:02;;;;;;;13.90;5.28;;;384.50;1971.20;;;;;;5095187;28;20056;-75
2024/01/25 11:43:28;;;;;;;15.98;5.78;;;384.50;1894.40;;;;;;5096124;28;20051;-77
2024/01/25 11:45:54;;;;;;;15.20;4.30;;;384.70;1843.20;;;;;;5100635;28;20031;-76
2024/01/25 11:48:20;;;;;;;18.42;5.78;;;384.50;1843.20;;;;;;5102347;28;20030;-75
2024/01/25 11:50:46;;;;;;;12.48;5.03;;;384.40;1868.80;;;;;;5108177;28;20032;-76
2024/01/25 11:53:12;;;;;;;14.15;4.93;;;384.20;1843.20;;;;;;5105195;28;20166;-75
2024/01/25 11:55:37;;;;;;;18.05;5.40;;;384.20;1843.20;;;;;;5111711;28;20130;-80
2024/01/25 11:58:03;;;;;;;19.27;5.70;;;359.30;1868.80;;;;;;5105434;28;20049;-76
2024/01/25 12:00:29;;;;;;;21.00;6.60;;;384.00;1868.80;;;;;;5108346;28;20078;-76
2024/01/25 12:02:55;;;;;;;15.57;5.38;;;359.30;1843.20;;;;;;5107066;28;20051;-75
2024/01/25 12:05:21;;;;;;;14.07;4.97;;;384.00;1868.80;;;;;;5101740;28;20028;-76
2024/01/25 12:07:47;;;;;;;15.57;5.53;;;359.30;1868.80;;;;;;5105568;28;20078;-76
2024/01/25 12:10:17;;;;;;;15.45;3.50;;;359.30;1817.60;;;;;;5109945;28;20355;-79
2024/01/25 12:12:43;;;;;;;15.80;5.82;;;359.00;1817.60;;;;;;5105965;28;20027;-78
2024/01/25 12:15:09;;;;;;;14.38;4.28;;;359.00;1792.00;;;;;;5098247;28;20107;-76
2024/01/25 12:17:41;;;;;;;17.65;4.88;;;359.10;1817.60;;;;;;5101175;28;20036;-76
2024/01/25 12:20:10;;;;;;;14.48;5.40;;;359.10;1817.60;;;;;;5116324;28;20080;-77
2024/01/25 12:22:36;;;;;;;17.88;5.80;;;359.10;1843.20;;;;;;5105170;28;20424;-78